createdAt,value
2023-12-11T00:01:13.666Z,41.52
2023-12-11T00:03:41.916Z,41.48
2023-12-11T00:06:10.113Z,41.58
2023-12-11T00:08:38.323Z,41.69
2023-12-11T00:11:06.308Z,41.63
2023-12-11T00:13:34.183Z,41.69
2023-12-11T00:16:03.763Z,41.62
2023-12-11T00:18:31.884Z,41.57
2023-12-11T00:20:59.938Z,41.84
2023-12-11T00:23:27.921Z,41.71
2023-12-11T00:25:55.751Z,41.78
2023-12-11T00:28:23.531Z,41.80
2023-12-11T00:30:52.279Z,41.97
2023-12-11T00:33:21.854Z,42.08
2023-12-11T00:35:49.984Z,41.96
2023-12-11T00:38:17.844Z,41.93
2023-12-11T00:40:46.979Z,42.29
2023-12-11T00:43:14.976Z,42.14
2023-12-11T00:45:42.886Z,42.31
2023-12-11T00:48:10.909Z,42.33
2023-12-11T00:50:40.194Z,42.38
2023-12-11T00:53:08.735Z,42.37
2023-12-11T00:55:36.759Z,42.49
2023-12-11T00:58:04.600Z,42.34
2023-12-11T01:00:32.558Z,42.34
2023-12-11T01:03:00.504Z,42.44
2023-12-11T01:05:28.474Z,42.49
2023-12-11T01:07:57.864Z,42.46
2023-12-11T01:10:25.913Z,42.50
2023-12-11T01:12:53.975Z,42.45
2023-12-11T01:15:22.018Z,42.54
2023-12-11T01:17:50.326Z,42.41
2023-12-11T01:20:18.769Z,42.65
2023-12-11T01:22:46.617Z,42.66
2023-12-11T01:25:15.937Z,42.72
2023-12-11T01:27:43.766Z,42.66
2023-12-11T01:30:11.937Z,42.79
2023-12-11T01:32:39.825Z,42.59
2023-12-11T01:35:08.165Z,42.71
2023-12-11T01:37:36.084Z,42.72
2023-12-11T01:40:06.309Z,42.74
2023-12-11T01:42:36.112Z,42.71
2023-12-11T01:45:03.960Z,42.78
2023-12-11T01:47:33.071Z,42.77
2023-12-11T01:50:01.289Z,42.85
2023-12-11T01:52:29.998Z,42.77
2023-12-11T01:54:58.144Z,42.89
2023-12-11T01:57:26.304Z,42.88
2023-12-11T01:59:55.770Z,43.07
2023-12-11T02:02:23.648Z,43.03
2023-12-11T02:04:54.533Z,42.99
2023-12-11T02:07:22.608Z,43.13
2023-12-11T02:09:50.582Z,43.09
2023-12-11T02:12:18.460Z,43.08
2023-12-11T02:14:46.582Z,43.31
2023-12-11T02:17:15.758Z,43.44
2023-12-11T02:19:43.680Z,43.34
2023-12-11T02:22:12.424Z,43.34
2023-12-11T02:24:42.013Z,43.42
2023-12-11T02:27:11.586Z,43.64
2023-12-11T02:29:39.434Z,43.57
2023-12-11T02:32:07.670Z,43.58
2023-12-11T02:34:35.694Z,43.60
2023-12-11T02:37:03.596Z,43.66
2023-12-11T02:39:31.487Z,43.75
2023-12-11T02:41:59.282Z,43.78
2023-12-11T02:44:28.591Z,43.95
2023-12-11T02:46:56.557Z,43.78
2023-12-11T02:49:24.539Z,43.95
2023-12-11T02:51:52.419Z,44.12
2023-12-11T02:54:20.399Z,44.13
2023-12-11T02:56:48.303Z,44.27
2023-12-11T02:59:16.278Z,44.54
2023-12-11T03:01:45.586Z,44.41
2023-12-11T03:04:13.591Z,44.55
2023-12-11T03:06:41.516Z,44.77
2023-12-11T03:09:09.408Z,44.80
2023-12-11T03:11:37.390Z,44.97
2023-12-11T03:14:05.432Z,45.09
2023-12-11T03:16:33.310Z,44.99
2023-12-11T03:19:02.628Z,45.23
2023-12-11T03:21:30.611Z,45.28
2023-12-11T03:23:58.564Z,45.30
2023-12-11T03:26:26.411Z,45.43
2023-12-11T03:28:54.365Z,45.35
2023-12-11T03:31:22.336Z,45.40
2023-12-11T03:33:50.343Z,45.40
2023-12-11T03:36:19.610Z,45.40
2023-12-11T03:38:47.472Z,45.65
2023-12-11T03:41:15.404Z,45.58
2023-12-11T03:43:43.455Z,45.55
2023-12-11T03:46:11.441Z,45.49
2023-12-11T03:48:39.677Z,45.48
2023-12-11T03:51:07.656Z,45.50
2023-12-11T03:53:37.168Z,45.38
2023-12-11T03:56:05.327Z,45.41
2023-12-11T03:58:33.168Z,45.46
2023-12-11T04:01:01.306Z,45.39
2023-12-11T04:03:29.431Z,45.45
2023-12-11T04:05:57.333Z,45.50
2023-12-11T04:08:25.246Z,45.50
2023-12-11T04:10:54.700Z,45.69
2023-12-11T04:13:22.541Z,45.43
2023-12-11T04:15:50.539Z,45.48
2023-12-11T04:18:18.679Z,45.50
2023-12-11T04:20:46.795Z,45.49
2023-12-11T04:23:14.725Z,45.60
2023-12-11T04:25:42.663Z,45.52
2023-12-11T04:28:12.197Z,45.45
2023-12-11T04:30:40.535Z,45.54
2023-12-11T04:33:08.518Z,45.60
2023-12-11T04:35:36.467Z,45.74
2023-12-11T04:38:04.328Z,45.61
2023-12-11T04:40:32.333Z,45.58
2023-12-11T04:43:00.426Z,45.65
2023-12-11T04:45:29.646Z,45.78
2023-12-11T04:47:57.729Z,45.66
2023-12-11T04:50:25.727Z,45.66
2023-12-11T04:52:53.606Z,45.60
2023-12-11T04:55:21.801Z,45.67
2023-12-11T04:57:50.010Z,45.63
2023-12-11T05:00:18.790Z,45.62
2023-12-11T05:02:48.056Z,45.75
2023-12-11T05:05:17.716Z,45.51
2023-12-11T05:07:45.862Z,45.51
2023-12-11T05:10:13.986Z,45.58
2023-12-11T05:12:42.101Z,45.45
2023-12-11T05:15:10.589Z,45.47
2023-12-11T05:17:38.479Z,45.65
2023-12-11T05:20:08.840Z,45.30
2023-12-11T05:22:36.796Z,44.49
2023-12-11T05:25:05.121Z,41.43
2023-12-11T05:27:33.201Z,39.46
2023-12-11T05:30:01.177Z,38.92
2023-12-11T05:32:29.074Z,38.35
2023-12-11T05:34:57.101Z,38.21
2023-12-11T05:37:26.487Z,38.25
2023-12-11T05:40:01.415Z,38.16
2023-12-11T05:42:42.394Z,38.02
2023-12-11T05:45:10.869Z,37.85
2023-12-11T05:47:38.796Z,37.60
2023-12-11T05:50:07.377Z,37.74
2023-12-11T05:52:36.634Z,37.40
2023-12-11T05:55:05.218Z,37.59
2023-12-11T05:57:33.386Z,37.41
2023-12-11T06:00:01.638Z,37.41
2023-12-11T06:02:30.146Z,37.36
2023-12-11T06:04:58.152Z,37.23
2023-12-11T06:07:26.151Z,37.16
2023-12-11T06:09:55.667Z,37.26
2023-12-11T06:12:23.744Z,37.42
2023-12-11T06:14:51.754Z,37.19
2023-12-11T06:17:20.882Z,37.10
2023-12-11T06:19:48.809Z,37.15
2023-12-11T06:22:16.898Z,37.08
2023-12-11T06:24:43.911Z,36.94
2023-12-11T06:27:13.194Z,37.03
2023-12-11T06:29:41.194Z,37.01
2023-12-11T06:32:09.715Z,36.83
2023-12-11T06:34:37.808Z,36.95
2023-12-11T06:37:06.701Z,36.88
2023-12-11T06:39:34.941Z,36.69
2023-12-11T06:42:03.116Z,37.03
2023-12-11T06:44:32.545Z,36.85
2023-12-11T06:47:00.635Z,36.79
2023-12-11T06:49:28.864Z,36.59
2023-12-11T06:51:57.584Z,36.79
2023-12-11T06:54:25.629Z,36.46
2023-12-11T06:56:53.671Z,36.43
2023-12-11T06:59:21.620Z,36.69
2023-12-11T07:01:51.314Z,36.72
2023-12-11T07:04:19.531Z,36.42
2023-12-11T07:06:47.678Z,36.55
2023-12-11T07:09:15.725Z,36.74
2023-12-11T07:11:43.873Z,36.38
2023-12-11T07:14:11.962Z,36.45
2023-12-11T07:16:40.208Z,36.49
2023-12-11T07:19:09.900Z,36.33
2023-12-11T07:21:38.353Z,36.40
2023-12-11T07:24:06.701Z,36.49
2023-12-11T07:26:34.602Z,36.29
2023-12-11T07:29:02.599Z,36.30
2023-12-11T07:31:30.644Z,36.19
2023-12-11T07:33:58.817Z,36.10
2023-12-11T07:36:28.381Z,36.06
2023-12-11T07:38:56.370Z,36.03
2023-12-11T07:41:25.356Z,36.18
2023-12-11T07:43:53.298Z,36.06
2023-12-11T07:46:23.133Z,35.85
2023-12-11T07:48:51.315Z,35.79
2023-12-11T07:51:20.166Z,35.90
2023-12-11T07:53:49.754Z,35.90
2023-12-11T07:56:21.650Z,35.85
2023-12-11T07:58:50.044Z,35.67
2023-12-11T08:01:18.172Z,35.67
2023-12-11T08:03:46.717Z,35.53
2023-12-11T08:06:15.098Z,35.65
2023-12-11T08:08:45.056Z,35.62
2023-12-11T08:11:18.753Z,35.59
2023-12-11T08:13:47.102Z,35.44
2023-12-11T08:16:15.929Z,35.35
2023-12-11T08:18:44.922Z,35.34
2023-12-11T08:21:13.229Z,35.18
2023-12-11T08:23:41.420Z,35.17
2023-12-11T08:26:10.699Z,35.26
2023-12-11T08:28:40.208Z,35.15
2023-12-11T08:31:08.592Z,35.05
2023-12-11T08:33:36.862Z,35.23
2023-12-11T08:36:05.248Z,35.03
2023-12-11T08:38:33.328Z,35.14
2023-12-11T08:41:01.346Z,35.09
2023-12-11T08:43:29.667Z,35.24
2023-12-11T08:45:59.175Z,35.12
2023-12-11T08:48:28.789Z,35.27
2023-12-11T08:50:57.083Z,35.47
2023-12-11T08:53:25.512Z,35.15
2023-12-11T08:55:55.146Z,35.33
2023-12-11T08:58:24.656Z,36.15
2023-12-11T09:00:53.032Z,35.90
2023-12-11T09:03:23.440Z,35.48
2023-12-11T09:05:52.892Z,35.75
2023-12-11T09:08:22.314Z,35.71
2023-12-11T09:10:50.422Z,35.63
2023-12-11T09:13:18.586Z,35.65
2023-12-11T09:15:46.611Z,35.63
2023-12-11T09:18:14.690Z,35.78
2023-12-11T09:20:45.236Z,35.79
2023-12-11T09:23:13.608Z,35.93
2023-12-11T09:25:41.969Z,35.88
2023-12-11T09:28:10.302Z,36.08
2023-12-11T09:30:39.087Z,35.91
2023-12-11T09:33:08.893Z,36.00
2023-12-11T09:35:38.451Z,36.11
2023-12-11T09:38:07.890Z,36.02
2023-12-11T09:40:37.071Z,36.19
2023-12-11T09:43:05.496Z,36.26
2023-12-11T09:45:33.629Z,36.37
2023-12-11T09:48:08.793Z,36.38
2023-12-11T09:50:42.665Z,36.19
2023-12-11T09:53:12.550Z,36.39
2023-12-11T09:55:40.877Z,36.45
2023-12-11T09:58:09.483Z,36.34
2023-12-11T10:00:38.472Z,36.34
2023-12-11T10:03:09.817Z,36.45
2023-12-11T10:05:38.981Z,36.39
2023-12-11T10:08:07.366Z,36.53
2023-12-11T10:10:39.682Z,36.67
2023-12-11T10:13:08.189Z,36.50
2023-12-11T10:15:37.101Z,36.55
2023-12-11T10:18:06.499Z,36.44
2023-12-11T10:20:35.484Z,36.49
2023-12-11T10:23:15.204Z,36.36
2023-12-11T10:25:46.413Z,36.58
2023-12-11T10:28:15.970Z,36.47
2023-12-11T10:30:52.789Z,36.48
2023-12-11T10:33:21.547Z,36.46
2023-12-11T10:35:50.380Z,36.63
2023-12-11T10:38:25.029Z,36.40
2023-12-11T10:40:56.977Z,36.41
2023-12-11T10:43:25.241Z,36.49
2023-12-11T10:45:53.554Z,36.61
2023-12-11T10:48:23.421Z,36.57
2023-12-11T10:50:51.846Z,36.42
2023-12-11T10:53:20.454Z,36.39
2023-12-11T10:55:49.203Z,36.46
2023-12-11T10:58:18.967Z,36.45
2023-12-11T11:00:47.207Z,36.53
2023-12-11T11:03:15.836Z,36.65
2023-12-11T11:05:44.114Z,36.69
2023-12-11T11:08:19.138Z,36.79
2023-12-11T11:10:52.506Z,36.76
2023-12-11T11:13:24.570Z,36.65
2023-12-11T11:15:53.380Z,36.92
2023-12-11T11:18:21.893Z,36.95
2023-12-11T11:21:08.529Z,36.97
2023-12-11T11:23:43.694Z,37.06
2023-12-11T11:26:30.242Z,37.26
2023-12-11T11:28:59.895Z,37.33
2023-12-11T11:31:42.877Z,37.37
2023-12-11T11:34:13.162Z,37.32
2023-12-11T11:36:48.033Z,37.44
2023-12-11T11:39:16.585Z,37.41
2023-12-11T11:41:45.832Z,37.50
2023-12-11T11:44:17.141Z,37.52
2023-12-11T11:46:52.238Z,37.48
2023-12-11T11:49:31.024Z,37.50
2023-12-11T11:52:00.021Z,38.00
2023-12-11T11:54:31.272Z,38.07
2023-12-11T11:56:59.235Z,37.72
2023-12-11T11:59:29.618Z,37.61
2023-12-11T12:01:58.459Z,37.52
2023-12-11T12:04:28.056Z,37.39
2023-12-11T12:06:58.347Z,37.64
2023-12-11T12:09:26.967Z,37.47
2023-12-11T12:11:55.516Z,37.62
2023-12-11T12:14:24.031Z,37.38
2023-12-11T12:16:53.649Z,37.54
2023-12-11T12:19:32.806Z,37.65
2023-12-11T12:22:03.487Z,37.61
2023-12-11T12:24:32.209Z,37.62
2023-12-11T12:27:02.538Z,37.54
2023-12-11T12:29:32.489Z,37.54
2023-12-11T12:32:02.289Z,37.57
2023-12-11T12:34:32.600Z,37.66
2023-12-11T12:37:02.402Z,37.73
2023-12-11T12:39:30.975Z,37.73
2023-12-11T12:41:59.408Z,37.72
2023-12-11T12:44:27.736Z,37.78
2023-12-11T12:47:01.680Z,37.75
2023-12-11T12:49:33.435Z,37.72
2023-12-11T12:52:01.942Z,37.84
2023-12-11T12:54:48.447Z,37.90
2023-12-11T12:57:17.893Z,37.84
2023-12-11T12:59:46.154Z,38.05
2023-12-11T13:02:15.906Z,38.03
2023-12-11T13:04:52.693Z,37.92
2023-12-11T13:07:23.381Z,37.94
2023-12-11T13:09:52.926Z,38.08
2023-12-11T13:12:22.568Z,38.04
2023-12-11T13:14:52.159Z,37.99
2023-12-11T13:17:20.854Z,37.94
2023-12-11T13:19:49.123Z,38.04
2023-12-11T13:22:18.721Z,37.87
2023-12-11T13:24:46.959Z,37.95
2023-12-11T13:27:15.293Z,37.98
2023-12-11T13:29:43.399Z,38.11
2023-12-11T13:32:14.362Z,37.99
2023-12-11T13:34:42.625Z,37.95
2023-12-11T13:37:10.826Z,37.94
2023-12-11T13:39:40.341Z,38.14
2023-12-11T13:42:08.495Z,38.05
2023-12-11T13:44:36.672Z,37.88
2023-12-11T13:47:04.972Z,37.88
2023-12-11T13:49:34.203Z,37.82
2023-12-11T13:52:02.451Z,38.12
2023-12-11T13:54:30.573Z,38.10
2023-12-11T13:57:00.491Z,37.78
2023-12-11T13:59:29.814Z,37.95
2023-12-11T14:01:59.167Z,38.26
2023-12-11T14:04:29.607Z,38.35
2023-12-11T14:06:59.403Z,38.32
2023-12-11T14:09:33.021Z,38.33
2023-12-11T14:12:04.764Z,38.44
2023-12-11T14:14:32.838Z,38.49
2023-12-11T14:17:00.931Z,38.53
2023-12-11T14:19:28.973Z,38.54
2023-12-11T14:21:57.114Z,38.59
2023-12-11T14:24:27.357Z,38.42
2023-12-11T14:26:57.525Z,38.31
2023-12-11T14:29:27.260Z,38.45
2023-12-11T14:31:55.389Z,38.43
2023-12-11T14:34:24.005Z,38.17
2023-12-11T14:36:53.486Z,38.31
2023-12-11T14:39:21.832Z,38.43
2023-12-11T14:41:50.133Z,38.34
2023-12-11T14:44:18.446Z,38.25
2023-12-11T14:46:48.214Z,38.33
2023-12-11T14:49:16.607Z,38.24
2023-12-11T14:51:44.778Z,38.09
2023-12-11T14:54:14.765Z,38.16
2023-12-11T14:56:42.984Z,38.32
2023-12-11T14:59:12.152Z,38.21
2023-12-11T15:01:40.216Z,38.25
2023-12-11T15:04:09.741Z,38.24
2023-12-11T15:06:38.532Z,38.12
2023-12-11T15:09:07.918Z,38.30
2023-12-11T15:11:36.358Z,38.24
2023-12-11T15:14:06.156Z,38.25
2023-12-11T15:16:38.677Z,38.21
2023-12-11T15:19:06.836Z,38.13
2023-12-11T15:21:36.654Z,38.07
2023-12-11T15:24:05.035Z,38.10
2023-12-11T15:26:33.088Z,38.21
2023-12-11T15:29:08.567Z,38.25
2023-12-11T15:31:36.620Z,38.32
2023-12-11T15:34:05.737Z,38.11
2023-12-11T15:36:33.917Z,38.18
2023-12-11T15:39:04.929Z,38.34
2023-12-11T15:41:33.587Z,38.48
2023-12-11T15:44:00.536Z,38.55
2023-12-11T15:46:28.776Z,38.52
2023-12-11T15:48:57.163Z,38.85
2023-12-11T15:51:27.184Z,39.03
2023-12-11T15:53:55.389Z,39.31
2023-12-11T15:56:25.024Z,39.39
2023-12-11T15:58:53.076Z,39.58
2023-12-11T16:01:21.274Z,39.58
2023-12-11T16:03:49.676Z,39.63
2023-12-11T16:06:17.750Z,39.87
2023-12-11T16:08:46.097Z,39.77
2023-12-11T16:11:15.754Z,39.80
2023-12-11T16:13:47.218Z,40.02
2023-12-11T16:16:17.368Z,39.97
2023-12-11T16:18:46.289Z,40.03
2023-12-11T16:21:14.798Z,40.00
2023-12-11T16:23:42.972Z,40.05
2023-12-11T16:26:13.658Z,40.17
2023-12-11T16:28:41.945Z,40.19
2023-12-11T16:31:11.595Z,40.18
2023-12-11T16:33:39.726Z,40.35
2023-12-11T16:36:12.894Z,40.22
2023-12-11T16:38:41.003Z,40.29
2023-12-11T16:41:09.353Z,40.19
2023-12-11T16:43:47.124Z,40.31
2023-12-11T16:46:16.963Z,40.45
2023-12-11T16:48:45.198Z,40.24
2023-12-11T16:51:13.418Z,40.50
2023-12-11T16:53:43.298Z,40.36
2023-12-11T16:56:11.413Z,40.58
2023-12-11T16:58:40.227Z,40.45
2023-12-11T17:01:08.466Z,40.56
2023-12-11T17:03:37.918Z,40.66
2023-12-11T17:06:06.360Z,40.51
2023-12-11T17:08:34.493Z,40.42
2023-12-11T17:11:02.639Z,40.59
2023-12-11T17:13:30.763Z,40.50
2023-12-11T17:15:58.979Z,40.58
2023-12-11T17:18:27.187Z,40.52
2023-12-11T17:20:56.698Z,40.66
2023-12-11T17:23:24.793Z,40.65
2023-12-11T17:25:52.808Z,40.55
2023-12-11T17:28:20.904Z,40.65
2023-12-11T17:30:53.334Z,40.55
2023-12-11T17:33:21.580Z,40.60
2023-12-11T17:35:49.634Z,40.59
2023-12-11T17:38:19.132Z,40.60
2023-12-11T17:40:47.194Z,40.55
2023-12-11T17:43:15.247Z,40.68
2023-12-11T17:45:43.660Z,40.65
2023-12-11T17:48:12.127Z,40.54
2023-12-11T17:50:40.373Z,40.66
2023-12-11T17:53:08.378Z,40.42
2023-12-11T17:55:37.874Z,40.53
2023-12-11T17:58:05.984Z,40.53
2023-12-11T18:00:34.297Z,40.39
2023-12-11T18:03:02.579Z,40.43
2023-12-11T18:05:31.013Z,40.57
2023-12-11T18:07:59.074Z,40.50
2023-12-11T18:10:27.176Z,40.50
2023-12-11T18:12:56.616Z,40.52
2023-12-11T18:15:24.687Z,40.60
2023-12-11T18:17:52.888Z,40.49
2023-12-11T18:20:21.168Z,40.48
2023-12-11T18:22:49.398Z,40.39
2023-12-11T18:25:17.438Z,40.41
2023-12-11T18:27:45.684Z,40.41
2023-12-11T18:30:16.191Z,40.26
2023-12-11T18:32:44.509Z,40.39
2023-12-11T18:35:12.597Z,40.15
2023-12-11T18:37:40.789Z,40.37
2023-12-11T18:40:09.536Z,40.38
2023-12-11T18:42:37.589Z,40.26
2023-12-11T18:45:05.998Z,40.42
2023-12-11T18:47:36.067Z,40.36
2023-12-11T18:50:06.285Z,40.45
2023-12-11T18:52:34.615Z,40.16
2023-12-11T18:55:02.727Z,40.30
2023-12-11T18:57:33.886Z,40.32
2023-12-11T19:00:02.249Z,40.21
2023-12-11T19:02:30.417Z,40.17
2023-12-11T19:05:00.132Z,40.22
2023-12-11T19:07:28.329Z,39.99
2023-12-11T19:09:56.788Z,40.01
2023-12-11T19:12:24.968Z,40.11
2023-12-11T19:14:54.059Z,40.26
2023-12-11T19:17:23.168Z,39.90
2023-12-11T19:19:51.351Z,40.21
2023-12-11T19:22:21.046Z,39.95
2023-12-11T19:24:49.154Z,39.96
2023-12-11T19:27:21.418Z,39.98
2023-12-11T19:29:49.529Z,40.13
2023-12-11T19:32:17.609Z,40.17
2023-12-11T19:34:46.134Z,40.21
2023-12-11T19:37:14.334Z,40.15
2023-12-11T19:39:44.038Z,40.05
2023-12-11T19:42:12.206Z,40.23
2023-12-11T19:44:41.878Z,40.14
2023-12-11T19:47:09.974Z,40.31
2023-12-11T19:49:38.019Z,40.19
2023-12-11T19:52:06.988Z,40.26
2023-12-11T19:54:35.941Z,40.33
2023-12-11T19:57:05.518Z,40.33
2023-12-11T19:59:33.633Z,40.21
2023-12-11T20:02:02.708Z,40.16
2023-12-11T20:04:32.327Z,40.18
2023-12-11T20:07:00.427Z,40.06
2023-12-11T20:09:30.457Z,40.14
2023-12-11T20:12:07.366Z,40.03
2023-12-11T20:14:43.494Z,40.04
2023-12-11T20:17:11.568Z,40.06
2023-12-11T20:19:39.726Z,39.96
2023-12-11T20:22:08.019Z,39.95
2023-12-11T20:24:36.124Z,39.84
2023-12-11T20:27:04.411Z,39.86
2023-12-11T20:29:32.366Z,39.83
2023-12-11T20:32:01.833Z,39.74
2023-12-11T20:34:29.874Z,39.76
2023-12-11T20:36:57.839Z,39.68
2023-12-11T20:39:25.930Z,39.61
2023-12-11T20:41:54.167Z,39.54
2023-12-11T20:44:22.167Z,39.49
2023-12-11T20:46:50.377Z,39.44
2023-12-11T20:49:19.928Z,39.61
2023-12-11T20:51:48.092Z,39.41
2023-12-11T20:54:16.265Z,39.31
2023-12-11T20:56:44.313Z,39.44
2023-12-11T20:59:12.427Z,39.22
2023-12-11T21:01:40.469Z,39.32
2023-12-11T21:04:09.088Z,39.30
2023-12-11T21:06:39.967Z,39.10
2023-12-11T21:09:09.174Z,39.20
2023-12-11T21:11:38.051Z,39.32
2023-12-11T21:14:06.237Z,39.21
2023-12-11T21:16:35.393Z,39.42
2023-12-11T21:19:04.213Z,39.27
2023-12-11T21:21:33.577Z,39.34
2023-12-11T21:24:03.324Z,39.32
2023-12-11T21:26:32.592Z,39.05
2023-12-11T21:29:00.677Z,39.22
2023-12-11T21:31:30.437Z,39.21
2023-12-11T21:33:59.262Z,39.05
2023-12-11T21:36:30.002Z,38.91
2023-12-11T21:38:58.039Z,38.90
2023-12-11T21:41:27.545Z,39.06
2023-12-11T21:43:57.672Z,38.89
2023-12-11T21:46:27.426Z,38.87
2023-12-11T21:48:58.876Z,38.85
2023-12-11T21:51:28.573Z,38.78
2023-12-11T21:53:56.957Z,38.80
2023-12-11T21:56:26.785Z,38.68
2023-12-11T21:58:56.614Z,38.69
2023-12-11T22:01:24.697Z,38.39
2023-12-11T22:03:52.961Z,38.60
2023-12-11T22:06:21.012Z,38.47
2023-12-11T22:08:49.408Z,38.28
2023-12-11T22:11:18.206Z,38.32
2023-12-11T22:13:47.344Z,38.12
2023-12-11T22:16:17.141Z,38.11
2023-12-11T22:18:48.668Z,37.81
2023-12-11T22:21:22.555Z,37.86
2023-12-11T22:23:50.592Z,37.92
2023-12-11T22:26:18.572Z,37.75
2023-12-11T22:28:46.617Z,37.75
2023-12-11T22:31:16.167Z,37.75
2023-12-11T22:33:44.126Z,37.82
2023-12-11T22:36:12.101Z,37.68
2023-12-11T22:38:42.482Z,37.45
2023-12-11T22:41:10.377Z,37.75
2023-12-11T22:43:38.415Z,37.53
2023-12-11T22:46:06.813Z,37.51
2023-12-11T22:48:36.370Z,37.35
2023-12-11T22:51:04.554Z,37.24
2023-12-11T22:53:32.687Z,37.24
2023-12-11T22:56:00.646Z,37.02
2023-12-11T22:58:28.866Z,37.02
2023-12-11T23:00:56.915Z,36.86
2023-12-11T23:03:26.067Z,36.88
2023-12-11T23:05:58.136Z,36.65
2023-12-11T23:08:27.484Z,36.74
2023-12-11T23:10:55.567Z,36.68
2023-12-11T23:13:23.565Z,36.78
2023-12-11T23:15:52.128Z,36.94
2023-12-11T23:18:20.228Z,36.93
2023-12-11T23:20:48.254Z,37.08
2023-12-11T23:23:17.707Z,37.46
2023-12-11T23:25:54.052Z,37.37
2023-12-11T23:28:26.738Z,37.69
2023-12-11T23:30:54.836Z,37.63
2023-12-11T23:33:22.940Z,37.82
2023-12-11T23:35:51.084Z,37.65
2023-12-11T23:38:20.478Z,37.66
2023-12-11T23:40:48.518Z,37.97
2023-12-11T23:43:16.857Z,37.99
2023-12-11T23:45:44.850Z,37.90
2023-12-11T23:48:12.943Z,37.73
2023-12-11T23:50:40.954Z,37.99
2023-12-11T23:53:09.160Z,38.05
2023-12-11T23:55:39.348Z,37.70
2023-12-11T23:58:07.299Z,37.88
